sensor_id;sensor_type;location;lat;lon;timestamp;P1;durP1;ratioP1;P2;durP2;ratioP2
13520;SDS011;6832;51.186;3.236;2023-02-23T00:00:23;55.90;;;15.80;;
13520;SDS011;6832;51.186;3.236;2023-02-23T00:02:54;47.13;;;15.47;;
13520;SDS011;6832;51.186;3.236;2023-02-23T00:05:25;46.70;;;14.10;;
13520;SDS011;6832;51.186;3.236;2023-02-23T00:07:52;57.10;;;16.67;;
13520;SDS011;6832;51.186;3.236;2023-02-23T00:10:19;49.30;;;14.50;;
13520;SDS011;6832;51.186;3.236;2023-02-23T00:12:50;56.43;;;14.67;;
13520;SDS011;6832;51.186;3.236;2023-02-23T00:15:17;51.37;;;14.47;;
13520;SDS011;6832;51.186;3.236;2023-02-23T00:17:44;43.70;;;13.90;;
13520;SDS011;6832;51.186;3.236;2023-02-23T00:20:13;50.57;;;15.10;;
13520;SDS011;6832;51.186;3.236;2023-02-23T00:22:41;45.13;;;13.90;;
13520;SDS011;6832;51.186;3.236;2023-02-23T00:25:08;49.53;;;14.13;;
13520;SDS011;6832;51.186;3.236;2023-02-23T00:27:37;50.70;;;14.37;;
13520;SDS011;6832;51.186;3.236;2023-02-23T00:30:09;58.90;;;15.57;;
13520;SDS011;6832;51.186;3.236;2023-02-23T00:32:37;51.00;;;15.20;;
13520;SDS011;6832;51.186;3.236;2023-02-23T00:35:05;47.67;;;13.73;;
13520;SDS011;6832;51.186;3.236;2023-02-23T00:37:37;47.53;;;13.77;;
13520;SDS011;6832;51.186;3.236;2023-02-23T00:40:07;46.23;;;14.73;;
13520;SDS011;6832;51.186;3.236;2023-02-23T00:42:38;44.03;;;13.50;;
13520;SDS011;6832;51.186;3.236;2023-02-23T00:45:06;52.97;;;15.03;;
13520;SDS011;6832;51.186;3.236;2023-02-23T00:47:36;50.13;;;14.27;;
13520;SDS011;6832;51.186;3.236;2023-02-23T00:50:04;55.30;;;14.70;;
13520;SDS011;6832;51.186;3.236;2023-02-23T00:52:32;60.40;;;14.43;;
13520;SDS011;6832;51.186;3.236;2023-02-23T00:55:01;56.83;;;14.57;;
13520;SDS011;6832;51.186;3.236;2023-02-23T00:57:28;52.07;;;14.43;;
13520;SDS011;6832;51.186;3.236;2023-02-23T00:59:55;56.60;;;15.10;;
13520;SDS011;6832;51.186;3.236;2023-02-23T01:02:22;56.63;;;14.73;;
13520;SDS011;6832;51.186;3.236;2023-02-23T01:04:49;56.40;;;15.30;;
13520;SDS011;6832;51.186;3.236;2023-02-23T01:07:16;51.73;;;14.20;;
13520;SDS011;6832;51.186;3.236;2023-02-23T01:09:43;53.03;;;14.47;;
13520;SDS011;6832;51.186;3.236;2023-02-23T01:12:12;51.10;;;14.87;;
13520;SDS011;6832;51.186;3.236;2023-02-23T01:14:40;44.63;;;13.63;;
13520;SDS011;6832;51.186;3.236;2023-02-23T01:17:07;54.87;;;14.70;;
13520;SDS011;6832;51.186;3.236;2023-02-23T01:19:34;54.13;;;13.97;;
13520;SDS011;6832;51.186;3.236;2023-02-23T01:22:01;45.17;;;14.30;;
13520;SDS011;6832;51.186;3.236;2023-02-23T01:24:28;74.23;;;16.23;;
13520;SDS011;6832;51.186;3.236;2023-02-23T01:26:55;48.10;;;14.47;;
13520;SDS011;6832;51.186;3.236;2023-02-23T01:29:23;50.77;;;14.63;;
13520;SDS011;6832;51.186;3.236;2023-02-23T01:31:50;49.23;;;15.63;;
13520;SDS011;6832;51.186;3.236;2023-02-23T01:34:18;48.37;;;13.33;;
13520;SDS011;6832;51.186;3.236;2023-02-23T01:36:46;61.07;;;14.23;;
13520;SDS011;6832;51.186;3.236;2023-02-23T01:39:14;46.37;;;13.70;;
13520;SDS011;6832;51.186;3.236;2023-02-23T01:41:42;55.90;;;14.47;;
13520;SDS011;6832;51.186;3.236;2023-02-23T01:47:10;47.83;;;13.67;;
13520;SDS011;6832;51.186;3.236;2023-02-23T01:49:39;48.70;;;13.73;;
13520;SDS011;6832;51.186;3.236;2023-02-23T01:52:06;57.67;;;15.67;;
13520;SDS011;6832;51.186;3.236;2023-02-23T01:54:37;52.70;;;14.00;;
13520;SDS011;6832;51.186;3.236;2023-02-23T01:57:05;57.30;;;13.27;;
13520;SDS011;6832;51.186;3.236;2023-02-23T01:59:35;72.20;;;15.87;;
13520;SDS011;6832;51.186;3.236;2023-02-23T02:02:05;46.10;;;13.83;;
13520;SDS011;6832;51.186;3.236;2023-02-23T02:04:35;51.37;;;14.07;;
13520;SDS011;6832;51.186;3.236;2023-02-23T02:07:08;46.67;;;13.83;;
13520;SDS011;6832;51.186;3.236;2023-02-23T02:09:35;60.77;;;14.80;;
13520;SDS011;6832;51.186;3.236;2023-02-23T02:12:04;51.33;;;14.03;;
13520;SDS011;6832;51.186;3.236;2023-02-23T02:14:35;53.07;;;13.20;;
13520;SDS011;6832;51.186;3.236;2023-02-23T02:17:05;53.70;;;13.97;;
13520;SDS011;6832;51.186;3.236;2023-02-23T02:26:06;55.83;;;14.10;;
13520;SDS011;6832;51.186;3.236;2023-02-23T02:38:05;48.57;;;12.93;;
13520;SDS011;6832;51.186;3.236;2023-02-23T02:40:41;50.40;;;13.73;;
13520;SDS011;6832;51.186;3.236;2023-02-23T02:43:19;51.27;;;13.40;;
13520;SDS011;6832;51.186;3.236;2023-02-23T02:45:52;58.77;;;13.80;;
13520;SDS011;6832;51.186;3.236;2023-02-23T02:48:23;51.63;;;13.57;;
13520;SDS011;6832;51.186;3.236;2023-02-23T02:50:59;50.60;;;12.97;;
13520;SDS011;6832;51.186;3.236;2023-02-23T02:53:37;52.47;;;14.27;;
13520;SDS011;6832;51.186;3.236;2023-02-23T02:56:06;36.73;;;12.27;;
13520;SDS011;6832;51.186;3.236;2023-02-23T02:58:35;47.03;;;13.90;;
13520;SDS011;6832;51.186;3.236;2023-02-23T03:01:06;49.80;;;13.67;;
13520;SDS011;6832;51.186;3.236;2023-02-23T03:03:55;66.47;;;15.30;;
13520;SDS011;6832;51.186;3.236;2023-02-23T03:06:43;53.23;;;13.63;;
13520;SDS011;6832;51.186;3.236;2023-02-23T03:09:33;45.93;;;13.67;;
13520;SDS011;6832;51.186;3.236;2023-02-23T03:12:24;49.23;;;13.60;;
13520;SDS011;6832;51.186;3.236;2023-02-23T03:15:17;51.07;;;13.50;;
13520;SDS011;6832;51.186;3.236;2023-02-23T03:18:19;43.23;;;13.40;;
13520;SDS011;6832;51.186;3.236;2023-02-23T03:21:21;45.00;;;14.03;;
13520;SDS011;6832;51.186;3.236;2023-02-23T03:24:12;47.77;;;13.50;;
13520;SDS011;6832;51.186;3.236;2023-02-23T03:27:09;47.77;;;13.47;;
13520;SDS011;6832;51.186;3.236;2023-02-23T03:30:01;54.93;;;14.07;;
13520;SDS011;6832;51.186;3.236;2023-02-23T03:32:55;64.63;;;13.83;;
13520;SDS011;6832;51.186;3.236;2023-02-23T03:35:44;49.23;;;13.17;;
13520;SDS011;6832;51.186;3.236;2023-02-23T03:38:34;47.67;;;13.13;;
13520;SDS011;6832;51.186;3.236;2023-02-23T03:41:24;49.93;;;14.50;;
13520;SDS011;6832;51.186;3.236;2023-02-23T03:44:14;57.13;;;13.80;;
13520;SDS011;6832;51.186;3.236;2023-02-23T03:47:04;50.27;;;13.77;;
13520;SDS011;6832;51.186;3.236;2023-02-23T03:49:51;52.80;;;13.60;;
13520;SDS011;6832;51.186;3.236;2023-02-23T03:52:38;50.73;;;13.57;;
13520;SDS011;6832;51.186;3.236;2023-02-23T03:55:28;52.70;;;13.90;;
13520;SDS011;6832;51.186;3.236;2023-02-23T03:58:17;52.57;;;13.97;;
13520;SDS011;6832;51.186;3.236;2023-02-23T04:01:09;51.17;;;14.13;;
13520;SDS011;6832;51.186;3.236;2023-02-23T04:03:56;55.10;;;13.57;;
13520;SDS011;6832;51.186;3.236;2023-02-23T04:06:44;46.73;;;13.10;;
13520;SDS011;6832;51.186;3.236;2023-02-23T04:09:30;41.60;;;12.80;;
13520;SDS011;6832;51.186;3.236;2023-02-23T04:12:16;44.13;;;13.07;;
13520;SDS011;6832;51.186;3.236;2023-02-23T04:15:06;44.47;;;13.83;;
13520;SDS011;6832;51.186;3.236;2023-02-23T04:17:36;43.63;;;13.47;;
13520;SDS011;6832;51.186;3.236;2023-02-23T04:20:05;66.93;;;14.77;;
13520;SDS011;6832;51.186;3.236;2023-02-23T04:22:33;42.07;;;12.67;;
13520;SDS011;6832;51.186;3.236;2023-02-23T04:25:00;52.63;;;13.87;;
13520;SDS011;6832;51.186;3.236;2023-02-23T04:27:27;46.63;;;13.27;;
13520;SDS011;6832;51.186;3.236;2023-02-23T04:29:54;50.57;;;13.67;;
13520;SDS011;6832;51.186;3.236;2023-02-23T04:32:21;47.10;;;14.27;;
13520;SDS011;6832;51.186;3.236;2023-02-23T04:34:49;51.27;;;13.90;;
13520;SDS011;6832;51.186;3.236;2023-02-23T04:37:16;46.97;;;13.00;;
13520;SDS011;6832;51.186;3.236;2023-02-23T04:39:43;41.20;;;12.53;;
13520;SDS011;6832;51.186;3.236;2023-02-23T04:42:13;43.10;;;13.40;;
13520;SDS011;6832;51.186;3.236;2023-02-23T04:44:41;44.87;;;13.20;;
13520;SDS011;6832;51.186;3.236;2023-02-23T04:47:08;46.50;;;12.77;;
13520;SDS011;6832;51.186;3.236;2023-02-23T04:49:35;42.17;;;12.83;;
13520;SDS011;6832;51.186;3.236;2023-02-23T04:52:04;70.53;;;14.70;;
13520;SDS011;6832;51.186;3.236;2023-02-23T04:54:31;57.47;;;14.27;;
13520;SDS011;6832;51.186;3.236;2023-02-23T04:56:58;57.60;;;14.27;;
13520;SDS011;6832;51.186;3.236;2023-02-23T04:59:24;46.47;;;14.30;;
13520;SDS011;6832;51.186;3.236;2023-02-23T05:01:52;47.10;;;12.47;;
13520;SDS011;6832;51.186;3.236;2023-02-23T05:04:19;48.57;;;12.80;;
13520;SDS011;6832;51.186;3.236;2023-02-23T05:06:46;49.03;;;14.33;;
13520;SDS011;6832;51.186;3.236;2023-02-23T05:09:15;40.80;;;12.93;;
13520;SDS011;6832;51.186;3.236;2023-02-23T05:11:42;75.17;;;15.23;;
13520;SDS011;6832;51.186;3.236;2023-02-23T05:14:08;49.63;;;12.87;;
13520;SDS011;6832;51.186;3.236;2023-02-23T05:16:36;48.60;;;13.20;;
13520;SDS011;6832;51.186;3.236;2023-02-23T05:19:06;61.83;;;15.00;;
13520;SDS011;6832;51.186;3.236;2023-02-23T05:21:33;49.47;;;12.90;;
13520;SDS011;6832;51.186;3.236;2023-02-23T05:24:00;55.13;;;13.67;;
13520;SDS011;6832;51.186;3.236;2023-02-23T05:26:28;59.63;;;13.27;;
13520;SDS011;6832;51.186;3.236;2023-02-23T05:28:55;66.97;;;15.53;;
13520;SDS011;6832;51.186;3.236;2023-02-23T05:31:22;50.90;;;13.77;;
13520;SDS011;6832;51.186;3.236;2023-02-23T05:33:50;66.93;;;15.03;;
13520;SDS011;6832;51.186;3.236;2023-02-23T05:36:18;46.23;;;12.10;;
13520;SDS011;6832;51.186;3.236;2023-02-23T05:38:46;49.37;;;12.70;;
13520;SDS011;6832;51.186;3.236;2023-02-23T05:41:14;47.57;;;13.10;;
13520;SDS011;6832;51.186;3.236;2023-02-23T05:43:44;47.97;;;12.77;;
13520;SDS011;6832;51.186;3.236;2023-02-23T05:46:12;45.80;;;12.87;;
13520;SDS011;6832;51.186;3.236;2023-02-23T05:48:41;48.13;;;12.23;;
13520;SDS011;6832;51.186;3.236;2023-02-23T05:51:11;52.83;;;13.17;;
13520;SDS011;6832;51.186;3.236;2023-02-23T05:53:39;51.27;;;13.23;;
13520;SDS011;6832;51.186;3.236;2023-02-23T05:56:07;48.67;;;12.53;;
13520;SDS011;6832;51.186;3.236;2023-02-23T05:58:37;45.83;;;12.13;;
13520;SDS011;6832;51.186;3.236;2023-02-23T06:01:05;51.53;;;13.37;;
13520;SDS011;6832;51.186;3.236;2023-02-23T06:03:32;50.50;;;12.60;;
13520;SDS011;6832;51.186;3.236;2023-02-23T06:05:59;48.33;;;12.40;;
13520;SDS011;6832;51.186;3.236;2023-02-23T06:08:26;47.23;;;12.43;;
13520;SDS011;6832;51.186;3.236;2023-02-23T06:10:53;47.57;;;12.00;;
13520;SDS011;6832;51.186;3.236;2023-02-23T06:13:20;45.37;;;12.53;;
13520;SDS011;6832;51.186;3.236;2023-02-23T06:15:47;49.07;;;13.13;;
13520;SDS011;6832;51.186;3.236;2023-02-23T06:18:19;61.20;;;13.80;;
13520;SDS011;6832;51.186;3.236;2023-02-23T06:20:46;43.37;;;11.93;;
13520;SDS011;6832;51.186;3.236;2023-02-23T06:23:13;41.47;;;11.93;;
13520;SDS011;6832;51.186;3.236;2023-02-23T06:25:40;65.70;;;14.50;;
13520;SDS011;6832;51.186;3.236;2023-02-23T06:28:07;47.43;;;12.47;;
13520;SDS011;6832;51.186;3.236;2023-02-23T06:30:35;59.60;;;15.23;;
13520;SDS011;6832;51.186;3.236;2023-02-23T06:33:05;51.40;;;12.40;;
13520;SDS011;6832;51.186;3.236;2023-02-23T06:35:34;49.37;;;12.47;;
13520;SDS011;6832;51.186;3.236;2023-02-23T06:38:01;65.60;;;14.00;;
13520;SDS011;6832;51.186;3.236;2023-02-23T06:40:28;46.33;;;12.37;;
13520;SDS011;6832;51.186;3.236;2023-02-23T06:42:55;46.53;;;12.93;;
13520;SDS011;6832;51.186;3.236;2023-02-23T06:45:22;53.23;;;13.93;;
13520;SDS011;6832;51.186;3.236;2023-02-23T06:47:49;48.50;;;12.30;;
13520;SDS011;6832;51.186;3.236;2023-02-23T06:50:17;46.53;;;12.00;;
13520;SDS011;6832;51.186;3.236;2023-02-23T06:52:45;36.33;;;11.47;;
13520;SDS011;6832;51.186;3.236;2023-02-23T06:55:13;67.60;;;14.87;;
13520;SDS011;6832;51.186;3.236;2023-02-23T06:57:41;67.97;;;14.13;;
13520;SDS011;6832;51.186;3.236;2023-02-23T07:00:08;59.63;;;13.67;;
13520;SDS011;6832;51.186;3.236;2023-02-23T07:02:39;56.40;;;12.73;;
13520;SDS011;6832;51.186;3.236;2023-02-23T07:05:06;72.77;;;14.50;;
13520;SDS011;6832;51.186;3.236;2023-02-23T07:07:34;48.07;;;12.40;;
13520;SDS011;6832;51.186;3.236;2023-02-23T07:10:02;48.00;;;13.63;;
13520;SDS011;6832;51.186;3.236;2023-02-23T07:12:29;45.50;;;12.23;;
13520;SDS011;6832;51.186;3.236;2023-02-23T07:14:57;47.30;;;12.87;;
13520;SDS011;6832;51.186;3.236;2023-02-23T07:17:24;44.37;;;12.60;;
13520;SDS011;6832;51.186;3.236;2023-02-23T07:19:51;47.00;;;13.53;;
13520;SDS011;6832;51.186;3.236;2023-02-23T07:22:18;47.13;;;12.73;;
13520;SDS011;6832;51.186;3.236;2023-02-23T07:24:46;53.07;;;13.77;;
13520;SDS011;6832;51.186;3.236;2023-02-23T07:27:14;50.50;;;13.73;;
13520;SDS011;6832;51.186;3.236;2023-02-23T07:29:41;47.43;;;13.67;;
13520;SDS011;6832;51.186;3.236;2023-02-23T07:32:08;46.40;;;12.90;;
13520;SDS011;6832;51.186;3.236;2023-02-23T07:34:35;51.60;;;14.40;;
13520;SDS011;6832;51.186;3.236;2023-02-23T07:37:04;39.33;;;12.43;;
13520;SDS011;6832;51.186;3.236;2023-02-23T07:39:31;46.00;;;13.33;;
13520;SDS011;6832;51.186;3.236;2023-02-23T07:41:58;41.33;;;13.20;;
13520;SDS011;6832;51.186;3.236;2023-02-23T07:44:27;73.67;;;15.80;;
13520;SDS011;6832;51.186;3.236;2023-02-23T07:46:54;48.33;;;14.07;;
13520;SDS011;6832;51.186;3.236;2023-02-23T07:49:21;38.27;;;12.97;;
13520;SDS011;6832;51.186;3.236;2023-02-23T07:51:49;38.87;;;12.27;;
13520;SDS011;6832;51.186;3.236;2023-02-23T07:54:16;54.20;;;13.87;;
13520;SDS011;6832;51.186;3.236;2023-02-23T07:56:43;45.10;;;13.53;;
13520;SDS011;6832;51.186;3.236;2023-02-23T07:59:10;48.73;;;15.03;;
13520;SDS011;6832;51.186;3.236;2023-02-23T08:01:39;54.27;;;14.97;;
13520;SDS011;6832;51.186;3.236;2023-02-23T08:04:06;55.83;;;16.77;;
13520;SDS011;6832;51.186;3.236;2023-02-23T08:06:33;60.47;;;17.77;;
13520;SDS011;6832;51.186;3.236;2023-02-23T08:09:00;74.20;;;17.97;;
13520;SDS011;6832;51.186;3.236;2023-02-23T08:11:28;64.73;;;17.07;;
13520;SDS011;6832;51.186;3.236;2023-02-23T08:13:56;56.00;;;18.03;;
13520;SDS011;6832;51.186;3.236;2023-02-23T08:16:24;102.73;;;23.93;;
13520;SDS011;6832;51.186;3.236;2023-02-23T08:18:53;79.97;;;22.20;;
13520;SDS011;6832;51.186;3.236;2023-02-23T08:21:23;64.43;;;21.87;;
13520;SDS011;6832;51.186;3.236;2023-02-23T08:23:50;70.87;;;21.27;;
13520;SDS011;6832;51.186;3.236;2023-02-23T08:26:17;72.73;;;22.63;;
13520;SDS011;6832;51.186;3.236;2023-02-23T08:28:56;71.03;;;21.40;;
13520;SDS011;6832;51.186;3.236;2023-02-23T08:31:23;65.77;;;22.40;;
13520;SDS011;6832;51.186;3.236;2023-02-23T08:33:52;60.80;;;20.13;;
13520;SDS011;6832;51.186;3.236;2023-02-23T08:36:20;52.17;;;19.67;;
13520;SDS011;6832;51.186;3.236;2023-02-23T08:38:47;69.27;;;22.30;;
13520;SDS011;6832;51.186;3.236;2023-02-23T08:41:14;65.27;;;21.43;;
13520;SDS011;6832;51.186;3.236;2023-02-23T08:43:41;67.47;;;21.33;;
13520;SDS011;6832;51.186;3.236;2023-02-23T08:46:14;61.03;;;21.07;;
13520;SDS011;6832;51.186;3.236;2023-02-23T08:48:44;65.90;;;20.90;;
13520;SDS011;6832;51.186;3.236;2023-02-23T08:51:12;62.70;;;19.13;;
13520;SDS011;6832;51.186;3.236;2023-02-23T08:53:39;72.83;;;21.37;;
13520;SDS011;6832;51.186;3.236;2023-02-23T08:56:07;67.30;;;21.97;;
13520;SDS011;6832;51.186;3.236;2023-02-23T08:58:34;67.23;;;20.87;;
13520;SDS011;6832;51.186;3.236;2023-02-23T09:01:02;66.20;;;19.53;;
13520;SDS011;6832;51.186;3.236;2023-02-23T09:03:29;88.50;;;22.03;;
13520;SDS011;6832;51.186;3.236;2023-02-23T09:05:57;58.00;;;18.80;;
13520;SDS011;6832;51.186;3.236;2023-02-23T09:08:31;62.90;;;18.57;;
13520;SDS011;6832;51.186;3.236;2023-02-23T09:10:59;61.63;;;19.07;;
13520;SDS011;6832;51.186;3.236;2023-02-23T09:13:25;52.33;;;18.27;;
13520;SDS011;6832;51.186;3.236;2023-02-23T09:15:52;60.00;;;19.07;;
13520;SDS011;6832;51.186;3.236;2023-02-23T09:18:19;57.07;;;18.60;;
13520;SDS011;6832;51.186;3.236;2023-02-23T09:20:48;77.43;;;19.97;;
13520;SDS011;6832;51.186;3.236;2023-02-23T09:23:15;55.83;;;19.10;;
13520;SDS011;6832;51.186;3.236;2023-02-23T09:25:44;66.77;;;19.27;;
13520;SDS011;6832;51.186;3.236;2023-02-23T09:28:11;63.83;;;19.57;;
13520;SDS011;6832;51.186;3.236;2023-02-23T09:30:39;63.43;;;19.70;;
13520;SDS011;6832;51.186;3.236;2023-02-23T09:33:09;59.07;;;18.67;;
13520;SDS011;6832;51.186;3.236;2023-02-23T09:35:37;63.90;;;19.17;;
13520;SDS011;6832;51.186;3.236;2023-02-23T09:38:05;61.13;;;18.23;;
13520;SDS011;6832;51.186;3.236;2023-02-23T09:40:34;66.97;;;19.53;;
13520;SDS011;6832;51.186;3.236;2023-02-23T09:43:11;56.47;;;19.87;;
13520;SDS011;6832;51.186;3.236;2023-02-23T09:45:42;60.73;;;19.07;;
13520;SDS011;6832;51.186;3.236;2023-02-23T09:48:13;56.67;;;18.80;;
13520;SDS011;6832;51.186;3.236;2023-02-23T09:50:43;67.17;;;18.90;;
13520;SDS011;6832;51.186;3.236;2023-02-23T09:53:19;53.10;;;17.83;;
13520;SDS011;6832;51.186;3.236;2023-02-23T09:55:51;58.80;;;18.30;;
13520;SDS011;6832;51.186;3.236;2023-02-23T09:58:22;58.27;;;17.97;;
13520;SDS011;6832;51.186;3.236;2023-02-23T10:00:56;73.37;;;19.00;;
13520;SDS011;6832;51.186;3.236;2023-02-23T10:03:49;74.67;;;18.97;;
13520;SDS011;6832;51.186;3.236;2023-02-23T10:06:21;57.70;;;18.03;;
13520;SDS011;6832;51.186;3.236;2023-02-23T10:08:51;59.80;;;18.40;;
13520;SDS011;6832;51.186;3.236;2023-02-23T10:11:29;60.47;;;17.43;;
13520;SDS011;6832;51.186;3.236;2023-02-23T10:14:06;52.20;;;16.97;;
13520;SDS011;6832;51.186;3.236;2023-02-23T10:16:47;61.37;;;18.37;;
13520;SDS011;6832;51.186;3.236;2023-02-23T10:19:26;62.40;;;17.37;;
13520;SDS011;6832;51.186;3.236;2023-02-23T10:22:00;58.77;;;16.73;;
13520;SDS011;6832;51.186;3.236;2023-02-23T10:24:31;55.53;;;17.27;;
13520;SDS011;6832;51.186;3.236;2023-02-23T10:27:04;51.07;;;17.30;;
13520;SDS011;6832;51.186;3.236;2023-02-23T10:29:36;45.70;;;15.90;;
13520;SDS011;6832;51.186;3.236;2023-02-23T10:32:11;64.33;;;18.17;;
13520;SDS011;6832;51.186;3.236;2023-02-23T10:34:44;51.93;;;15.87;;
13520;SDS011;6832;51.186;3.236;2023-02-23T10:37:15;58.13;;;16.50;;
13520;SDS011;6832;51.186;3.236;2023-02-23T10:39:42;64.50;;;16.63;;
13520;SDS011;6832;51.186;3.236;2023-02-23T10:42:12;47.27;;;14.73;;
13520;SDS011;6832;51.186;3.236;2023-02-23T10:44:44;63.23;;;16.43;;
13520;SDS011;6832;51.186;3.236;2023-02-23T10:47:12;45.47;;;15.60;;
13520;SDS011;6832;51.186;3.236;2023-02-23T10:49:43;57.70;;;17.20;;
13520;SDS011;6832;51.186;3.236;2023-02-23T10:52:11;52.90;;;16.13;;
13520;SDS011;6832;51.186;3.236;2023-02-23T10:54:46;62.90;;;16.43;;
13520;SDS011;6832;51.186;3.236;2023-02-23T10:57:21;47.40;;;16.27;;
13520;SDS011;6832;51.186;3.236;2023-02-23T11:00:04;51.07;;;15.17;;
13520;SDS011;6832;51.186;3.236;2023-02-23T11:02:45;49.60;;;15.30;;
13520;SDS011;6832;51.186;3.236;2023-02-23T11:05:26;41.53;;;13.77;;
13520;SDS011;6832;51.186;3.236;2023-02-23T11:13:50;49.63;;;14.67;;
13520;SDS011;6832;51.186;3.236;2023-02-23T11:16:19;49.50;;;13.67;;
13520;SDS011;6832;51.186;3.236;2023-02-23T11:18:49;46.27;;;13.53;;
13520;SDS011;6832;51.186;3.236;2023-02-23T11:21:20;49.07;;;14.27;;
13520;SDS011;6832;51.186;3.236;2023-02-23T11:23:50;50.00;;;13.63;;
13520;SDS011;6832;51.186;3.236;2023-02-23T11:26:32;46.30;;;14.03;;
13520;SDS011;6832;51.186;3.236;2023-02-23T11:29:09;50.90;;;13.43;;
13520;SDS011;6832;51.186;3.236;2023-02-23T11:34:39;49.47;;;13.53;;
13520;SDS011;6832;51.186;3.236;2023-02-23T11:37:18;56.43;;;13.90;;
13520;SDS011;6832;51.186;3.236;2023-02-23T11:39:50;53.50;;;14.07;;
13520;SDS011;6832;51.186;3.236;2023-02-23T11:42:19;49.10;;;12.70;;
13520;SDS011;6832;51.186;3.236;2023-02-23T11:44:50;50.20;;;13.77;;
13520;SDS011;6832;51.186;3.236;2023-02-23T11:47:20;79.73;;;16.13;;
13520;SDS011;6832;51.186;3.236;2023-02-23T11:49:48;48.00;;;12.60;;
13520;SDS011;6832;51.186;3.236;2023-02-23T11:52:17;59.27;;;13.73;;
13520;SDS011;6832;51.186;3.236;2023-02-23T11:54:50;47.90;;;12.53;;
13520;SDS011;6832;51.186;3.236;2023-02-23T11:57:20;47.43;;;13.47;;
13520;SDS011;6832;51.186;3.236;2023-02-23T11:59:48;58.27;;;13.97;;
13520;SDS011;6832;51.186;3.236;2023-02-23T12:02:18;47.17;;;13.17;;
13520;SDS011;6832;51.186;3.236;2023-02-23T12:04:50;57.73;;;13.17;;
13520;SDS011;6832;51.186;3.236;2023-02-23T12:07:26;48.97;;;13.53;;
13520;SDS011;6832;51.186;3.236;2023-02-23T12:10:05;54.90;;;13.40;;
13520;SDS011;6832;51.186;3.236;2023-02-23T12:12:47;44.33;;;11.83;;
13520;SDS011;6832;51.186;3.236;2023-02-23T12:15:22;54.43;;;12.97;;
13520;SDS011;6832;51.186;3.236;2023-02-23T12:17:58;47.60;;;12.43;;
13520;SDS011;6832;51.186;3.236;2023-02-23T12:20:29;51.40;;;12.00;;
13520;SDS011;6832;51.186;3.236;2023-02-23T12:23:01;53.07;;;12.80;;
13520;SDS011;6832;51.186;3.236;2023-02-23T12:25:33;43.80;;;12.37;;
13520;SDS011;6832;51.186;3.236;2023-02-23T12:28:05;50.53;;;13.47;;
13520;SDS011;6832;51.186;3.236;2023-02-23T12:30:41;57.17;;;12.93;;
13520;SDS011;6832;51.186;3.236;2023-02-23T12:33:14;70.07;;;13.67;;
13520;SDS011;6832;51.186;3.236;2023-02-23T12:35:45;44.00;;;11.07;;
13520;SDS011;6832;51.186;3.236;2023-02-23T12:38:19;45.60;;;11.87;;
13520;SDS011;6832;51.186;3.236;2023-02-23T12:40:53;57.30;;;12.77;;
13520;SDS011;6832;51.186;3.236;2023-02-23T12:43:28;49.97;;;11.67;;
13520;SDS011;6832;51.186;3.236;2023-02-23T12:49:24;43.10;;;10.67;;
13520;SDS011;6832;51.186;3.236;2023-02-23T12:51:57;43.70;;;10.63;;
13520;SDS011;6832;51.186;3.236;2023-02-23T12:54:34;46.87;;;11.30;;
13520;SDS011;6832;51.186;3.236;2023-02-23T12:57:04;40.53;;;10.40;;
13520;SDS011;6832;51.186;3.236;2023-02-23T13:02:56;39.93;;;10.73;;
13520;SDS011;6832;51.186;3.236;2023-02-23T13:05:50;40.57;;;10.97;;
13520;SDS011;6832;51.186;3.236;2023-02-23T13:08:27;55.63;;;12.03;;
13520;SDS011;6832;51.186;3.236;2023-02-23T13:11:10;52.30;;;11.33;;
13520;SDS011;6832;51.186;3.236;2023-02-23T13:13:43;41.07;;;10.73;;
13520;SDS011;6832;51.186;3.236;2023-02-23T13:16:14;44.60;;;10.67;;
13520;SDS011;6832;51.186;3.236;2023-02-23T13:18:50;39.70;;;9.97;;
13520;SDS011;6832;51.186;3.236;2023-02-23T13:21:27;41.77;;;9.63;;
13520;SDS011;6832;51.186;3.236;2023-02-23T13:23:59;47.00;;;10.67;;
13520;SDS011;6832;51.186;3.236;2023-02-23T13:26:33;55.53;;;10.73;;
13520;SDS011;6832;51.186;3.236;2023-02-23T13:29:09;55.13;;;11.13;;
13520;SDS011;6832;51.186;3.236;2023-02-23T13:31:49;45.13;;;9.90;;
13520;SDS011;6832;51.186;3.236;2023-02-23T13:34:19;44.43;;;9.80;;
13520;SDS011;6832;51.186;3.236;2023-02-23T13:36:52;39.60;;;9.53;;
13520;SDS011;6832;51.186;3.236;2023-02-23T13:42:25;49.73;;;10.43;;
13520;SDS011;6832;51.186;3.236;2023-02-23T13:45:09;63.63;;;12.27;;
13520;SDS011;6832;51.186;3.236;2023-02-23T13:47:48;40.50;;;9.87;;
13520;SDS011;6832;51.186;3.236;2023-02-23T13:50:22;44.27;;;10.00;;
13520;SDS011;6832;51.186;3.236;2023-02-23T13:53:00;48.07;;;10.27;;
13520;SDS011;6832;51.186;3.236;2023-02-23T13:58:18;38.47;;;9.03;;
13520;SDS011;6832;51.186;3.236;2023-02-23T14:00:52;53.33;;;9.90;;
13520;SDS011;6832;51.186;3.236;2023-02-23T14:03:31;41.93;;;9.27;;
13520;SDS011;6832;51.186;3.236;2023-02-23T14:06:06;37.80;;;9.07;;
13520;SDS011;6832;51.186;3.236;2023-02-23T14:08:38;45.20;;;10.10;;
13520;SDS011;6832;51.186;3.236;2023-02-23T14:11:08;44.00;;;9.80;;
13520;SDS011;6832;51.186;3.236;2023-02-23T14:13:38;38.23;;;8.67;;
13520;SDS011;6832;51.186;3.236;2023-02-23T14:16:11;44.97;;;10.03;;
13520;SDS011;6832;51.186;3.236;2023-02-23T14:21:41;44.40;;;9.53;;
13520;SDS011;6832;51.186;3.236;2023-02-23T14:24:16;49.00;;;10.23;;
13520;SDS011;6832;51.186;3.236;2023-02-23T14:32:37;44.97;;;9.53;;
13520;SDS011;6832;51.186;3.236;2023-02-23T14:35:08;39.23;;;9.23;;
13520;SDS011;6832;51.186;3.236;2023-02-23T14:38:08;38.90;;;9.83;;
13520;SDS011;6832;51.186;3.236;2023-02-23T14:40:44;45.23;;;10.30;;
13520;SDS011;6832;51.186;3.236;2023-02-23T14:46:20;55.00;;;10.30;;
13520;SDS011;6832;51.186;3.236;2023-02-23T14:48:59;45.20;;;9.73;;
13520;SDS011;6832;51.186;3.236;2023-02-23T14:51:36;43.87;;;9.23;;
13520;SDS011;6832;51.186;3.236;2023-02-23T14:54:09;37.57;;;8.47;;
13520;SDS011;6832;51.186;3.236;2023-02-23T14:56:49;44.40;;;10.03;;
13520;SDS011;6832;51.186;3.236;2023-02-23T14:59:23;49.07;;;9.53;;
13520;SDS011;6832;51.186;3.236;2023-02-23T15:01:52;36.67;;;9.37;;
13520;SDS011;6832;51.186;3.236;2023-02-23T15:04:21;41.83;;;9.97;;
13520;SDS011;6832;51.186;3.236;2023-02-23T15:06:54;42.93;;;10.13;;
13520;SDS011;6832;51.186;3.236;2023-02-23T15:09:34;51.90;;;10.43;;
13520;SDS011;6832;51.186;3.236;2023-02-23T15:12:15;42.57;;;9.87;;
13520;SDS011;6832;51.186;3.236;2023-02-23T15:14:51;39.40;;;9.50;;
13520;SDS011;6832;51.186;3.236;2023-02-23T15:17:23;47.90;;;10.50;;
13520;SDS011;6832;51.186;3.236;2023-02-23T15:19:56;44.67;;;10.10;;
13520;SDS011;6832;51.186;3.236;2023-02-23T15:22:26;45.20;;;9.90;;
13520;SDS011;6832;51.186;3.236;2023-02-23T15:24:55;65.33;;;11.23;;
13520;SDS011;6832;51.186;3.236;2023-02-23T15:27:35;56.37;;;10.97;;
13520;SDS011;6832;51.186;3.236;2023-02-23T15:30:43;41.00;;;9.00;;
13520;SDS011;6832;51.186;3.236;2023-02-23T15:33:11;49.40;;;10.27;;
13520;SDS011;6832;51.186;3.236;2023-02-23T15:35:40;46.97;;;9.57;;
13520;SDS011;6832;51.186;3.236;2023-02-23T15:38:14;40.93;;;9.70;;
13520;SDS011;6832;51.186;3.236;2023-02-23T15:40:54;51.93;;;10.37;;
13520;SDS011;6832;51.186;3.236;2023-02-23T15:43:38;49.67;;;9.83;;
13520;SDS011;6832;51.186;3.236;2023-02-23T15:46:07;36.87;;;8.87;;
13520;SDS011;6832;51.186;3.236;2023-02-23T15:48:41;46.23;;;9.80;;
13520;SDS011;6832;51.186;3.236;2023-02-23T15:51:26;52.03;;;10.53;;
13520;SDS011;6832;51.186;3.236;2023-02-23T15:54:05;43.40;;;8.97;;
13520;SDS011;6832;51.186;3.236;2023-02-23T15:56:38;40.93;;;9.27;;